createdAt,value
2022-08-17T00:00:17.294Z,24.10
2022-08-17T00:03:13.631Z,24.10
2022-08-17T00:05:57.338Z,24.00
2022-08-17T00:08:33.290Z,24.00
2022-08-17T00:11:02.037Z,24.00
2022-08-17T00:13:37.346Z,23.90
2022-08-17T00:16:17.359Z,23.90
2022-08-17T00:19:02.139Z,23.90
2022-08-17T00:21:56.400Z,23.90
2022-08-17T00:24:22.104Z,23.80
2022-08-17T00:26:48.964Z,23.80
2022-08-17T00:29:20.020Z,23.80
2022-08-17T00:31:47.599Z,23.80
2022-08-17T00:34:14.520Z,23.70
2022-08-17T00:36:41.398Z,23.70
2022-08-17T00:39:08.359Z,23.60
2022-08-17T00:41:35.776Z,23.60
2022-08-17T00:44:05.416Z,23.60
2022-08-17T00:46:39.188Z,23.50
2022-08-17T00:49:07.993Z,23.50
2022-08-17T00:51:43.087Z,23.50
2022-08-17T00:54:31.103Z,23.40
2022-08-17T00:57:09.091Z,23.40
2022-08-17T01:00:01.521Z,23.40
2022-08-17T01:02:51.780Z,23.30
2022-08-17T01:05:25.567Z,23.30
2022-08-17T01:07:53.610Z,23.20
2022-08-17T01:10:58.556Z,23.10
2022-08-17T01:13:18.021Z,23.10
2022-08-17T01:15:57.292Z,23.10
2022-08-17T01:18:26.262Z,23.00
2022-08-17T01:20:57.497Z,23.00
2022-08-17T01:23:28.769Z,23.00
2022-08-17T01:26:01.741Z,22.90
2022-08-17T01:28:52.664Z,22.90
2022-08-17T01:31:19.539Z,22.90
2022-08-17T01:33:46.463Z,22.80
2022-08-17T01:36:13.789Z,22.80
2022-08-17T01:38:40.769Z,22.70
2022-08-17T01:41:13.598Z,22.70
2022-08-17T01:43:48.971Z,22.70
2022-08-17T01:46:26.899Z,22.70
2022-08-17T01:48:57.373Z,22.60
2022-08-17T01:51:32.652Z,22.60
2022-08-17T01:54:06.765Z,22.60
2022-08-17T01:56:38.480Z,22.50
2022-08-17T01:59:06.352Z,22.50
2022-08-17T02:01:35.779Z,22.50
2022-08-17T02:04:04.323Z,22.50
2022-08-17T02:06:52.603Z,22.50
2022-08-17T02:09:25.498Z,22.40
2022-08-17T02:11:58.340Z,22.40
2022-08-17T02:14:26.642Z,22.40
2022-08-17T02:16:54.211Z,22.40
2022-08-17T02:19:22.219Z,22.40
2022-08-17T02:21:52.076Z,22.40
2022-08-17T02:24:58.641Z,22.40
2022-08-17T02:27:16.019Z,22.40
2022-08-17T02:29:42.920Z,22.40
2022-08-17T02:32:27.532Z,22.40
2022-08-17T02:34:56.801Z,22.30
2022-08-17T02:37:24.506Z,22.30
2022-08-17T02:39:51.552Z,22.30
2022-08-17T02:42:18.545Z,22.20
2022-08-17T02:44:45.482Z,22.20
2022-08-17T02:47:12.687Z,22.20
2022-08-17T02:49:39.711Z,22.20
2022-08-17T02:52:08.037Z,22.20
2022-08-17T02:54:41.303Z,22.10
2022-08-17T02:57:10.570Z,22.10
2022-08-17T02:59:39.996Z,22.10
2022-08-17T03:02:10.571Z,22.00
2022-08-17T03:04:38.557Z,22.00
2022-08-17T03:07:06.585Z,22.00
2022-08-17T03:09:33.529Z,21.90
2022-08-17T03:12:12.099Z,21.90
2022-08-17T03:14:42.038Z,21.90
2022-08-17T03:17:11.178Z,21.90
2022-08-17T03:19:44.222Z,21.80
2022-08-17T03:22:35.517Z,21.80
2022-08-17T03:24:58.096Z,21.80
2022-08-17T03:27:24.954Z,21.80
2022-08-17T03:29:51.849Z,21.80
2022-08-17T03:32:20.526Z,21.80
2022-08-17T03:34:48.012Z,21.70
2022-08-17T03:37:15.785Z,21.70
2022-08-17T03:39:42.915Z,21.70
2022-08-17T03:42:31.962Z,21.70
2022-08-17T03:45:01.541Z,21.70
2022-08-17T03:47:47.495Z,21.60
2022-08-17T03:50:40.080Z,21.60
2022-08-17T03:53:33.826Z,21.60
2022-08-17T03:56:22.917Z,21.50
2022-08-17T03:58:50.563Z,21.50
2022-08-17T04:01:18.029Z,21.50
2022-08-17T04:03:45.222Z,21.50
2022-08-17T04:06:12.088Z,21.50
2022-08-17T04:08:39.164Z,21.50
2022-08-17T04:11:06.127Z,21.50
2022-08-17T04:13:33.158Z,21.40
2022-08-17T04:16:00.183Z,21.40
2022-08-17T04:18:27.345Z,21.40
2022-08-17T04:20:54.360Z,21.40
2022-08-17T04:23:21.215Z,21.40
2022-08-17T04:25:51.246Z,21.40
2022-08-17T04:28:19.815Z,21.40
2022-08-17T04:30:48.177Z,21.40
2022-08-17T04:33:24.580Z,21.40
2022-08-17T04:35:56.107Z,21.40
2022-08-17T04:38:31.073Z,21.40
2022-08-17T04:41:17.763Z,21.40
2022-08-17T04:43:48.198Z,21.40
2022-08-17T04:46:19.737Z,21.40
2022-08-17T04:48:50.811Z,21.40
2022-08-17T04:51:27.783Z,21.30
2022-08-17T04:54:05.892Z,21.30
2022-08-17T04:56:33.991Z,21.30
2022-08-17T04:59:08.937Z,21.30
2022-08-17T05:01:37.580Z,21.40
2022-08-17T05:04:33.611Z,21.40
2022-08-17T05:06:56.208Z,21.40
2022-08-17T05:09:23.847Z,21.50
2022-08-17T05:11:51.364Z,21.50
2022-08-17T05:14:18.292Z,21.60
2022-08-17T05:16:48.178Z,21.60
2022-08-17T05:19:15.155Z,21.70
2022-08-17T05:21:42.138Z,21.80
2022-08-17T05:24:15.562Z,21.80
2022-08-17T05:26:56.136Z,21.80
2022-08-17T05:29:23.039Z,21.90
2022-08-17T05:32:37.999Z,21.90
2022-08-17T05:35:01.106Z,22.00
2022-08-17T05:37:28.430Z,22.00
2022-08-17T05:39:55.467Z,22.10
2022-08-17T05:42:22.715Z,22.10
2022-08-17T05:44:49.587Z,22.20
2022-08-17T05:47:18.142Z,22.20
2022-08-17T05:49:45.182Z,22.30
2022-08-17T05:52:53.214Z,22.30
2022-08-17T05:55:45.684Z,22.40
2022-08-17T05:58:42.366Z,22.50
2022-08-17T06:01:24.424Z,22.50
2022-08-17T06:04:34.438Z,22.60
2022-08-17T06:07:21.587Z,22.70
2022-08-17T06:10:12.083Z,22.70
2022-08-17T06:13:00.297Z,22.80
2022-08-17T06:15:33.209Z,22.80
2022-08-17T06:18:07.795Z,22.80
2022-08-17T06:20:54.819Z,22.80
2022-08-17T06:23:41.375Z,22.90
2022-08-17T06:26:39.662Z,22.90
2022-08-17T06:29:35.338Z,22.90
2022-08-17T06:32:06.135Z,23.00
2022-08-17T06:34:33.988Z,23.10
2022-08-17T06:37:35.512Z,23.10
2022-08-17T06:41:00.589Z,23.20
2022-08-17T06:43:49.154Z,23.30
2022-08-17T06:46:23.977Z,23.40
2022-08-17T06:49:25.820Z,23.50
2022-08-17T06:52:07.951Z,23.70
2022-08-17T06:55:01.736Z,23.80
2022-08-17T06:57:32.985Z,23.90
2022-08-17T07:00:12.465Z,24.10
2022-08-17T07:03:06.183Z,24.20
2022-08-17T07:05:42.264Z,24.40
2022-08-17T07:08:35.545Z,24.40
2022-08-17T07:11:12.977Z,24.60
2022-08-17T07:14:25.073Z,24.70
2022-08-17T07:17:00.010Z,24.80
2022-08-17T07:19:36.368Z,24.80
2022-08-17T07:22:15.221Z,24.90
2022-08-17T07:24:55.875Z,24.90
2022-08-17T07:27:43.056Z,24.90
2022-08-17T07:30:22.716Z,25.00
2022-08-17T07:33:15.345Z,25.00
2022-08-17T07:35:44.882Z,25.00
2022-08-17T07:38:26.902Z,25.10
2022-08-17T07:40:57.599Z,25.00
2022-08-17T07:43:39.171Z,25.10
2022-08-17T07:47:06.607Z,25.10
2022-08-17T07:49:47.375Z,25.10
2022-08-17T07:52:51.998Z,25.20
2022-08-17T07:55:34.726Z,25.10
2022-08-17T07:58:01.975Z,25.10
2022-08-17T08:00:32.259Z,25.20
2022-08-17T08:03:23.707Z,25.10
2022-08-17T08:06:01.312Z,25.20
2022-08-17T08:08:31.004Z,25.20
2022-08-17T08:11:38.353Z,25.30
2022-08-17T08:14:42.227Z,25.30
2022-08-17T08:17:10.090Z,25.50
2022-08-17T08:19:37.103Z,25.60
2022-08-17T08:22:36.878Z,25.70
2022-08-17T08:25:32.716Z,25.70
2022-08-17T08:28:39.694Z,25.60
2022-08-17T08:31:42.350Z,25.70
2022-08-17T08:34:58.908Z,25.70
2022-08-17T08:38:18.159Z,25.60
2022-08-17T08:41:20.682Z,25.50
2022-08-17T08:44:09.042Z,25.50
2022-08-17T08:47:09.074Z,25.50
2022-08-17T08:50:37.039Z,25.60
2022-08-17T08:53:48.591Z,25.70
2022-08-17T08:56:58.995Z,26.00
2022-08-17T09:00:06.193Z,26.10
2022-08-17T09:02:54.667Z,26.40
2022-08-17T09:05:58.566Z,26.60
2022-08-17T09:08:53.265Z,26.90
2022-08-17T09:12:02.082Z,26.90
2022-08-17T09:14:47.833Z,26.80
2022-08-17T09:17:39.062Z,26.60
2022-08-17T09:21:05.894Z,26.40
2022-08-17T09:23:45.212Z,26.30
2022-08-17T09:26:23.599Z,26.30
2022-08-17T09:28:59.101Z,26.30
2022-08-17T09:31:49.181Z,26.20
2022-08-17T09:34:32.075Z,26.20
2022-08-17T09:37:24.550Z,26.30
2022-08-17T09:40:25.607Z,26.30
2022-08-17T09:43:13.025Z,26.40
2022-08-17T09:45:51.007Z,26.40
2022-08-17T09:48:27.528Z,26.50
2022-08-17T09:51:21.270Z,26.40
2022-08-17T09:53:49.948Z,26.40
2022-08-17T09:56:34.839Z,26.30
2022-08-17T09:59:28.219Z,26.30
2022-08-17T10:02:58.953Z,26.30
2022-08-17T10:06:21.981Z,26.40
2022-08-17T10:09:38.706Z,26.50
2022-08-17T10:12:31.350Z,26.50
2022-08-17T10:15:42.805Z,26.50
2022-08-17T10:18:37.607Z,26.40
2022-08-17T10:21:30.852Z,26.30
2022-08-17T10:24:33.267Z,26.30
2022-08-17T10:27:07.467Z,26.20
2022-08-17T10:29:48.876Z,26.20
2022-08-17T10:32:38.602Z,26.10
2022-08-17T10:35:39.200Z,26.00
2022-08-17T10:38:37.109Z,25.90
2022-08-17T10:41:57.950Z,25.90
2022-08-17T10:45:06.348Z,25.70
2022-08-17T10:48:26.461Z,25.60
2022-08-17T10:50:56.101Z,25.50
2022-08-17T10:53:51.112Z,25.50
2022-08-17T10:56:22.283Z,25.40
2022-08-17T10:58:59.495Z,25.30
2022-08-17T11:01:32.642Z,25.20
2022-08-17T11:04:17.518Z,25.10
2022-08-17T11:07:25.798Z,25.00
2022-08-17T11:10:36.279Z,24.90
2022-08-17T11:13:23.412Z,24.80
2022-08-17T11:16:07.687Z,24.70
2022-08-17T11:19:12.987Z,24.60
2022-08-17T11:22:12.508Z,24.60
2022-08-17T11:24:47.827Z,24.40
2022-08-17T11:27:35.921Z,24.30
2022-08-17T11:30:13.639Z,24.20
2022-08-17T11:32:52.903Z,24.20
2022-08-17T11:35:21.969Z,24.20
2022-08-17T11:38:42.954Z,24.20
2022-08-17T11:42:20.285Z,24.20
2022-08-17T11:44:59.301Z,23.90
2022-08-17T11:48:26.545Z,23.90
2022-08-17T11:51:24.861Z,23.90
2022-08-17T11:54:14.785Z,24.00
2022-08-17T11:56:51.036Z,24.10
2022-08-17T11:59:33.515Z,24.20
2022-08-17T12:02:35.153Z,24.30
2022-08-17T12:05:12.331Z,24.40
2022-08-17T12:07:52.468Z,24.50
2022-08-17T12:10:31.896Z,24.50
2022-08-17T12:13:06.939Z,24.60
2022-08-17T12:15:43.230Z,24.70
2022-08-17T12:18:28.407Z,24.80
2022-08-17T12:21:40.205Z,24.90
2022-08-17T12:24:42.739Z,24.90
2022-08-17T12:27:13.271Z,25.30
2022-08-17T12:29:45.141Z,25.60
2022-08-17T12:32:20.582Z,25.80
2022-08-17T12:34:51.393Z,25.80
2022-08-17T12:37:24.547Z,25.80
2022-08-17T12:39:59.928Z,25.80
2022-08-17T12:42:40.359Z,25.90
2022-08-17T12:45:25.246Z,26.20
2022-08-17T12:48:13.429Z,26.30
2022-08-17T12:50:45.775Z,26.50
2022-08-17T12:53:24.622Z,26.60
2022-08-17T12:55:53.727Z,26.70
2022-08-17T12:58:31.825Z,26.80
2022-08-17T13:01:14.032Z,26.80
2022-08-17T13:03:52.343Z,26.90
2022-08-17T13:06:36.771Z,26.80
2022-08-17T13:09:35.316Z,27.00
2022-08-17T13:12:09.224Z,27.30
2022-08-17T13:14:36.365Z,27.50
2022-08-17T13:17:08.593Z,27.80
2022-08-17T13:19:50.699Z,28.10
2022-08-17T13:22:23.904Z,28.10
2022-08-17T13:25:00.704Z,28.10
2022-08-17T13:27:30.142Z,28.00
2022-08-17T13:30:02.237Z,28.10
2022-08-17T13:32:39.941Z,27.80
2022-08-17T13:35:36.457Z,27.60
2022-08-17T13:38:09.134Z,27.60
2022-08-17T13:40:41.580Z,27.70
2022-08-17T13:43:10.292Z,27.70
2022-08-17T13:45:50.662Z,27.80
2022-08-17T13:48:36.894Z,28.00
2022-08-17T13:51:32.181Z,27.80
2022-08-17T13:54:03.878Z,27.90
2022-08-17T13:56:44.693Z,28.30
2022-08-17T13:59:53.170Z,28.40
2022-08-17T14:02:16.925Z,28.20
2022-08-17T14:04:47.146Z,28.00
2022-08-17T14:07:15.303Z,27.70
2022-08-17T14:10:13.599Z,27.40
2022-08-17T14:12:43.385Z,27.20
2022-08-17T14:15:13.990Z,26.90
2022-08-17T14:17:40.968Z,26.80
2022-08-17T14:20:12.860Z,26.80
2022-08-17T14:22:49.326Z,26.80
2022-08-17T14:25:21.594Z,26.70
2022-08-17T14:27:52.924Z,26.60
2022-08-17T14:30:29.658Z,26.50
2022-08-17T14:33:00.242Z,26.40
2022-08-17T14:35:31.467Z,26.20
2022-08-17T14:37:58.484Z,26.30
2022-08-17T14:40:25.775Z,26.40
2022-08-17T14:42:55.745Z,26.30
2022-08-17T14:45:30.172Z,26.20
2022-08-17T14:47:59.713Z,26.20
2022-08-17T14:50:27.121Z,26.40
2022-08-17T14:52:56.540Z,26.60
2022-08-17T14:55:30.874Z,26.90
2022-08-17T14:57:58.331Z,27.20
2022-08-17T15:00:27.025Z,27.50
2022-08-17T15:02:58.665Z,27.80
2022-08-17T15:05:31.820Z,27.90
2022-08-17T15:08:03.156Z,28.10
2022-08-17T15:10:31.499Z,28.20
2022-08-17T15:13:00.257Z,28.20
2022-08-17T15:15:38.107Z,28.10
2022-08-17T15:18:08.377Z,27.90
2022-08-17T15:20:36.129Z,27.90
2022-08-17T15:27:32.532Z,27.80
2022-08-17T15:30:15.166Z,28.00
2022-08-17T15:33:44.539Z,28.10
2022-08-17T15:36:37.697Z,28.30
2022-08-17T15:39:15.163Z,28.30
2022-08-17T15:41:58.774Z,28.40
2022-08-17T15:44:41.055Z,28.30
2022-08-17T15:52:41.084Z,28.20
2022-08-17T15:55:15.683Z,28.40
2022-08-17T15:57:49.625Z,28.40
2022-08-17T16:00:19.739Z,28.10
2022-08-17T16:03:58.058Z,28.10
2022-08-17T16:10:21.154Z,27.70
2022-08-17T16:12:50.252Z,27.80
2022-08-17T16:15:18.302Z,27.90
2022-08-17T16:17:45.392Z,28.00
2022-08-17T16:20:19.564Z,28.00
2022-08-17T16:22:49.812Z,27.80
2022-08-17T16:25:38.860Z,27.80
2022-08-17T16:28:17.476Z,27.70
2022-08-17T16:30:45.449Z,27.60
2022-08-17T16:33:12.719Z,27.50
2022-08-17T16:35:39.910Z,27.40
2022-08-17T16:38:07.273Z,27.30
2022-08-17T16:40:35.793Z,27.10
2022-08-17T16:43:11.979Z,27.00
2022-08-17T16:45:40.843Z,26.80
2022-08-17T16:48:09.502Z,26.70
2022-08-17T16:50:37.264Z,26.60
2022-08-17T16:53:17.838Z,26.40
2022-08-17T16:55:46.604Z,26.40
2022-08-17T16:58:14.474Z,26.20
2022-08-17T17:00:44.129Z,26.00
2022-08-17T17:03:22.100Z,26.00
2022-08-17T17:06:16.191Z,25.90
2022-08-17T17:08:59.124Z,25.90
2022-08-17T17:11:34.248Z,25.90
2022-08-17T17:14:11.636Z,25.90
2022-08-17T17:17:01.616Z,25.90
2022-08-17T17:19:45.564Z,25.90
2022-08-17T17:22:25.798Z,25.70
2022-08-17T17:25:17.544Z,25.60
2022-08-17T17:28:02.599Z,25.60
2022-08-17T17:31:05.427Z,25.50
2022-08-17T17:34:03.987Z,25.40
2022-08-17T17:40:05.631Z,25.30
2022-08-17T17:42:33.491Z,25.30
2022-08-17T17:45:23.507Z,25.30
2022-08-17T17:47:50.880Z,25.30
2022-08-17T17:50:21.313Z,25.30
2022-08-17T17:53:04.289Z,25.40
2022-08-17T17:55:40.928Z,25.30
2022-08-17T17:58:37.221Z,25.20
2022-08-17T18:01:10.382Z,25.20
2022-08-17T18:04:20.681Z,25.20
2022-08-17T18:07:01.335Z,25.20
2022-08-17T18:09:51.997Z,25.20
2022-08-17T18:13:15.404Z,25.20
2022-08-17T18:15:53.986Z,25.20
2022-08-17T18:18:39.429Z,25.10
2022-08-17T18:21:21.420Z,25.00
2022-08-17T18:23:56.503Z,25.00
2022-08-17T18:26:41.929Z,24.90
2022-08-17T18:29:34.298Z,24.90
2022-08-17T18:32:29.315Z,24.90
2022-08-17T18:35:19.243Z,25.00
2022-08-17T18:38:21.174Z,24.90
2022-08-17T18:41:02.102Z,24.90
2022-08-17T18:43:44.044Z,24.80
2022-08-17T18:46:35.063Z,24.80
2022-08-17T18:49:08.520Z,24.70
2022-08-17T18:51:42.759Z,24.70
2022-08-17T18:54:19.065Z,24.60
2022-08-17T18:56:54.172Z,24.60
2022-08-17T18:59:43.652Z,24.50
2022-08-17T19:02:23.193Z,24.40
2022-08-17T19:05:24.825Z,24.30
2022-08-17T19:07:52.266Z,24.30
2022-08-17T19:10:31.668Z,24.20
2022-08-17T19:13:12.281Z,24.20
2022-08-17T19:16:15.977Z,24.20
2022-08-17T19:18:55.957Z,24.10
2022-08-17T19:21:43.197Z,24.00
2022-08-17T19:24:24.874Z,24.00
2022-08-17T19:27:13.705Z,23.90
2022-08-17T19:30:04.000Z,23.80
2022-08-17T19:32:35.979Z,23.80
2022-08-17T19:35:06.604Z,23.70
2022-08-17T19:38:13.342Z,23.70
2022-08-17T19:41:13.384Z,23.60
2022-08-17T19:44:06.905Z,23.60
2022-08-17T19:47:00.663Z,23.50
2022-08-17T19:50:07.971Z,23.50
2022-08-17T19:53:10.999Z,23.40
2022-08-17T19:55:57.586Z,23.30
2022-08-17T19:59:04.625Z,23.30
2022-08-17T20:01:53.409Z,23.20
2022-08-17T20:04:32.305Z,23.20
2022-08-17T20:07:17.660Z,23.10
2022-08-17T20:09:54.641Z,23.10
2022-08-17T20:12:31.320Z,23.00
2022-08-17T20:15:20.663Z,23.00
2022-08-17T20:17:48.758Z,23.00
2022-08-17T20:20:34.923Z,23.00
2022-08-17T20:23:32.528Z,22.90
2022-08-17T20:26:49.125Z,22.90
2022-08-17T20:29:39.749Z,22.80
2022-08-17T20:32:26.714Z,22.80
2022-08-17T20:35:18.116Z,22.70
2022-08-17T20:38:05.341Z,22.70
2022-08-17T20:41:03.792Z,22.60
2022-08-17T20:43:33.388Z,22.60
2022-08-17T20:46:09.291Z,22.50
2022-08-17T20:48:42.858Z,22.50
2022-08-17T20:51:29.517Z,22.50
2022-08-17T20:54:07.686Z,22.40
2022-08-17T20:56:58.513Z,22.40
2022-08-17T20:59:25.663Z,22.40
2022-08-17T21:02:18.128Z,22.40
2022-08-17T21:05:37.640Z,22.30
2022-08-17T21:08:57.501Z,22.30
2022-08-17T21:11:56.919Z,22.20
2022-08-17T21:14:37.938Z,22.10
2022-08-17T21:18:00.606Z,22.10
2022-08-17T21:20:50.384Z,22.00
2022-08-17T21:23:48.442Z,21.90
2022-08-17T21:26:34.482Z,21.90
2022-08-17T21:29:30.831Z,21.90
2022-08-17T21:31:59.545Z,21.80
2022-08-17T21:34:44.805Z,21.80
2022-08-17T21:37:22.181Z,21.70
2022-08-17T21:40:12.670Z,21.70
2022-08-17T21:42:48.843Z,21.70
2022-08-17T21:45:32.151Z,21.70
2022-08-17T21:48:20.920Z,21.60
2022-08-17T21:51:10.201Z,21.60
2022-08-17T21:53:47.689Z,21.60
2022-08-17T21:56:26.812Z,21.50
2022-08-17T21:59:16.109Z,21.40
2022-08-17T22:01:43.260Z,21.40
2022-08-17T22:04:11.196Z,21.40
2022-08-17T22:06:43.098Z,21.30
2022-08-17T22:09:31.450Z,21.40
2022-08-17T22:12:15.917Z,21.30
2022-08-17T22:14:52.648Z,21.30
2022-08-17T22:17:29.820Z,21.30
2022-08-17T22:20:05.610Z,21.20
2022-08-17T22:23:40.052Z,21.20
2022-08-17T22:26:12.768Z,21.20
2022-08-17T22:28:50.781Z,21.10
2022-08-17T22:32:00.884Z,21.10
2022-08-17T22:34:27.879Z,21.10
2022-08-17T22:37:28.762Z,21.00
2022-08-17T22:39:59.468Z,21.00
2022-08-17T22:42:28.445Z,21.00
2022-08-17T22:44:55.315Z,20.90
2022-08-17T22:47:40.763Z,20.90
2022-08-17T22:50:27.188Z,20.90
2022-08-17T22:53:38.186Z,20.80
2022-08-17T22:56:25.016Z,20.80
2022-08-17T22:59:16.262Z,20.80
2022-08-17T23:02:04.732Z,20.80
2022-08-17T23:04:36.693Z,20.80
2022-08-17T23:07:03.868Z,20.70
2022-08-17T23:09:30.834Z,20.70
2022-08-17T23:12:07.411Z,20.60
2022-08-17T23:14:42.391Z,20.60
2022-08-17T23:17:09.266Z,20.60
2022-08-17T23:19:36.327Z,20.50
2022-08-17T23:22:08.014Z,20.50
2022-08-17T23:24:43.459Z,20.40
2022-08-17T23:27:11.796Z,20.40
2022-08-17T23:29:41.290Z,20.40
2022-08-17T23:32:13.431Z,20.40
2022-08-17T23:34:44.000Z,20.40
2022-08-17T23:37:12.138Z,20.30
2022-08-17T23:39:39.954Z,20.30
2022-08-17T23:42:11.075Z,20.30
2022-08-17T23:44:40.936Z,20.20
2022-08-17T23:47:08.039Z,20.20
2022-08-17T23:49:36.212Z,20.20
2022-08-17T23:52:09.788Z,20.20
2022-08-17T23:54:43.727Z,20.10
2022-08-17T23:57:14.442Z,20.00
2022-08-17T23:59:43.724Z,20.00
